メインページ
METAR-TAF:

METAR-TAF

空港 :

ラアス・アル=ハイマ国際空港

ラアス・アル=ハイマ, アラブ首長国連邦

緯度: 25-37N, 経度: 055-56E, 海抜: 31m

現時点の気象観測

当レポートは47分前の18:00(UTC)に作成
の風 3kt
気温 19°C
湿度 73%
気圧 1018 hPa
視程10km以上
1,500メートル以下は雲なし、積乱雲なし

METAR: OMRK 111800Z 18003KT CAVOK 19/14 Q1017 A3005

時間: 22:47 (18:47 UTC)

予報

当レポートは1時間52分前の16:55(UTC)に作成
予報は11日の 18時(UTC)から 13日の 00時(UTC)まで有効
南/南東の風 5kt
視程10km以上
1,500メートル以下は雲なし、積乱雲なし
12日の 08時(UTC)から 12日の 10時(UTC)まで徐々に
北西の風 10kt
12日の 14時(UTC)から 12日の 16時(UTC)まで徐々に
の風 5kt

TAF: OMRK 111655Z 1118/1300 15005KT CAVOK BECMG 1208/1210 31010KT BECMG 1214/1216 10005KT

4,000以上の空港の気象観測と天気予報(METAR報とTAF報)

利用可能な観測所は地図上に黄色い丸と赤い丸で示す。

丸の上にカーソルを重ねると観測所名を参照できる。

次にクリックすると気象観測と天気予報を参照できる。

マップの切り替え:黒色「×」印の緑ボタンをクリックして拡大、「-」印の緑ボタンをクリックして縮小、緑色の三角印をクリックして隣りの地図に切り替え


METAR-TAF: